sensor_id;sensor_type;location;lat;lon;timestamp;P1;durP1;ratioP1;P2;durP2;ratioP2
54307;SDS011;40208;39.778;2.710;2023-04-16T00:00:04;15.65;;;2.90;;
54307;SDS011;40208;39.778;2.710;2023-04-16T00:02:50;18.83;;;2.58;;
54307;SDS011;40208;39.778;2.710;2023-04-16T00:05:35;7.60;;;1.92;;
54307;SDS011;40208;39.778;2.710;2023-04-16T00:08:20;9.05;;;2.45;;
54307;SDS011;40208;39.778;2.710;2023-04-16T00:11:07;13.55;;;2.80;;
54307;SDS011;40208;39.778;2.710;2023-04-16T00:13:52;12.70;;;2.22;;
54307;SDS011;40208;39.778;2.710;2023-04-16T00:16:36;11.85;;;2.38;;
54307;SDS011;40208;39.778;2.710;2023-04-16T00:19:21;18.75;;;2.60;;
54307;SDS011;40208;39.778;2.710;2023-04-16T00:22:06;16.92;;;2.30;;
54307;SDS011;40208;39.778;2.710;2023-04-16T00:24:51;17.92;;;2.75;;
54307;SDS011;40208;39.778;2.710;2023-04-16T00:27:42;15.63;;;1.92;;
54307;SDS011;40208;39.778;2.710;2023-04-16T00:30:26;11.25;;;2.60;;
54307;SDS011;40208;39.778;2.710;2023-04-16T00:33:11;12.38;;;2.13;;
54307;SDS011;40208;39.778;2.710;2023-04-16T00:35:56;17.83;;;2.50;;
54307;SDS011;40208;39.778;2.710;2023-04-16T00:38:41;14.70;;;2.83;;
54307;SDS011;40208;39.778;2.710;2023-04-16T00:41:26;10.20;;;2.20;;
54307;SDS011;40208;39.778;2.710;2023-04-16T00:44:11;23.25;;;3.25;;
54307;SDS011;40208;39.778;2.710;2023-04-16T00:46:56;18.42;;;2.40;;
54307;SDS011;40208;39.778;2.710;2023-04-16T00:49:41;12.65;;;2.08;;
54307;SDS011;40208;39.778;2.710;2023-04-16T00:52:26;11.93;;;2.30;;
54307;SDS011;40208;39.778;2.710;2023-04-16T00:55:12;11.27;;;2.25;;
54307;SDS011;40208;39.778;2.710;2023-04-16T00:57:57;11.00;;;2.30;;
54307;SDS011;40208;39.778;2.710;2023-04-16T01:00:41;12.43;;;2.38;;
54307;SDS011;40208;39.778;2.710;2023-04-16T01:03:33;12.57;;;2.38;;
54307;SDS011;40208;39.778;2.710;2023-04-16T01:06:26;15.57;;;2.15;;
54307;SDS011;40208;39.778;2.710;2023-04-16T01:09:11;14.63;;;2.30;;
54307;SDS011;40208;39.778;2.710;2023-04-16T01:11:59;12.95;;;1.92;;
54307;SDS011;40208;39.778;2.710;2023-04-16T01:14:45;20.13;;;2.95;;
54307;SDS011;40208;39.778;2.710;2023-04-16T01:17:30;14.85;;;2.10;;
54307;SDS011;40208;39.778;2.710;2023-04-16T01:20:15;13.40;;;2.17;;
54307;SDS011;40208;39.778;2.710;2023-04-16T01:23:00;8.95;;;1.98;;
54307;SDS011;40208;39.778;2.710;2023-04-16T01:25:45;15.07;;;2.47;;
54307;SDS011;40208;39.778;2.710;2023-04-16T01:28:30;13.15;;;2.30;;
54307;SDS011;40208;39.778;2.710;2023-04-16T01:31:15;12.98;;;2.80;;
54307;SDS011;40208;39.778;2.710;2023-04-16T01:33:59;9.63;;;2.45;;
54307;SDS011;40208;39.778;2.710;2023-04-16T01:36:44;13.20;;;2.28;;
54307;SDS011;40208;39.778;2.710;2023-04-16T01:39:29;5.68;;;1.98;;
54307;SDS011;40208;39.778;2.710;2023-04-16T01:42:14;10.40;;;2.25;;
54307;SDS011;40208;39.778;2.710;2023-04-16T01:45:00;13.15;;;2.40;;
54307;SDS011;40208;39.778;2.710;2023-04-16T01:47:45;10.18;;;2.15;;
54307;SDS011;40208;39.778;2.710;2023-04-16T01:50:30;16.55;;;2.30;;
54307;SDS011;40208;39.778;2.710;2023-04-16T01:53:15;14.25;;;2.50;;
54307;SDS011;40208;39.778;2.710;2023-04-16T01:56:00;11.10;;;2.20;;
54307;SDS011;40208;39.778;2.710;2023-04-16T01:58:45;18.75;;;2.33;;
54307;SDS011;40208;39.778;2.710;2023-04-16T02:01:30;18.38;;;3.10;;
54307;SDS011;40208;39.778;2.710;2023-04-16T02:04:16;16.33;;;2.30;;
54307;SDS011;40208;39.778;2.710;2023-04-16T02:07:00;14.82;;;2.45;;
54307;SDS011;40208;39.778;2.710;2023-04-16T02:09:45;13.50;;;2.47;;
54307;SDS011;40208;39.778;2.710;2023-04-16T02:12:30;9.52;;;2.22;;
54307;SDS011;40208;39.778;2.710;2023-04-16T02:15:15;19.08;;;3.65;;
54307;SDS011;40208;39.778;2.710;2023-04-16T02:18:00;11.38;;;1.95;;
54307;SDS011;40208;39.778;2.710;2023-04-16T02:20:45;13.23;;;2.00;;
54307;SDS011;40208;39.778;2.710;2023-04-16T02:23:30;6.70;;;1.98;;
54307;SDS011;40208;39.778;2.710;2023-04-16T02:26:15;11.90;;;2.05;;
54307;SDS011;40208;39.778;2.710;2023-04-16T02:29:00;15.70;;;2.40;;
54307;SDS011;40208;39.778;2.710;2023-04-16T02:31:45;7.38;;;1.40;;
54307;SDS011;40208;39.778;2.710;2023-04-16T02:34:29;7.45;;;1.85;;
54307;SDS011;40208;39.778;2.710;2023-04-16T02:37:14;6.53;;;1.90;;
54307;SDS011;40208;39.778;2.710;2023-04-16T02:39:59;11.40;;;2.50;;
54307;SDS011;40208;39.778;2.710;2023-04-16T02:42:44;12.77;;;1.90;;
54307;SDS011;40208;39.778;2.710;2023-04-16T02:45:29;7.45;;;1.80;;
54307;SDS011;40208;39.778;2.710;2023-04-16T02:48:14;8.52;;;1.90;;
54307;SDS011;40208;39.778;2.710;2023-04-16T02:50:59;15.57;;;2.00;;
54307;SDS011;40208;39.778;2.710;2023-04-16T02:53:44;11.90;;;1.73;;
54307;SDS011;40208;39.778;2.710;2023-04-16T02:56:29;11.13;;;1.77;;
54307;SDS011;40208;39.778;2.710;2023-04-16T02:59:14;6.35;;;1.30;;
54307;SDS011;40208;39.778;2.710;2023-04-16T03:01:59;7.78;;;1.80;;
54307;SDS011;40208;39.778;2.710;2023-04-16T03:04:44;9.93;;;1.70;;
54307;SDS011;40208;39.778;2.710;2023-04-16T03:07:28;12.15;;;1.80;;
54307;SDS011;40208;39.778;2.710;2023-04-16T03:10:13;9.07;;;1.95;;
54307;SDS011;40208;39.778;2.710;2023-04-16T03:12:58;12.27;;;1.85;;
54307;SDS011;40208;39.778;2.710;2023-04-16T03:15:46;8.32;;;1.88;;
54307;SDS011;40208;39.778;2.710;2023-04-16T03:18:32;12.70;;;2.03;;
54307;SDS011;40208;39.778;2.710;2023-04-16T03:21:17;11.88;;;1.95;;
54307;SDS011;40208;39.778;2.710;2023-04-16T03:24:02;10.45;;;1.98;;
54307;SDS011;40208;39.778;2.710;2023-04-16T03:26:47;11.68;;;1.73;;
54307;SDS011;40208;39.778;2.710;2023-04-16T03:29:32;11.32;;;2.30;;
54307;SDS011;40208;39.778;2.710;2023-04-16T03:32:16;8.88;;;1.95;;
54307;SDS011;40208;39.778;2.710;2023-04-16T03:35:02;6.63;;;1.75;;
54307;SDS011;40208;39.778;2.710;2023-04-16T03:37:47;9.07;;;2.20;;
54307;SDS011;40208;39.778;2.710;2023-04-16T03:40:33;14.95;;;1.90;;
54307;SDS011;40208;39.778;2.710;2023-04-16T03:43:18;7.40;;;1.40;;
54307;SDS011;40208;39.778;2.710;2023-04-16T03:46:02;6.40;;;1.45;;
54307;SDS011;40208;39.778;2.710;2023-04-16T03:48:47;5.70;;;1.48;;
54307;SDS011;40208;39.778;2.710;2023-04-16T03:51:32;10.18;;;2.45;;
54307;SDS011;40208;39.778;2.710;2023-04-16T03:54:17;8.88;;;1.73;;
54307;SDS011;40208;39.778;2.710;2023-04-16T03:57:02;6.07;;;1.73;;
54307;SDS011;40208;39.778;2.710;2023-04-16T03:59:47;8.18;;;1.45;;
54307;SDS011;40208;39.778;2.710;2023-04-16T04:02:32;4.78;;;1.63;;
54307;SDS011;40208;39.778;2.710;2023-04-16T04:05:16;7.72;;;1.60;;
54307;SDS011;40208;39.778;2.710;2023-04-16T04:08:01;7.00;;;1.40;;
54307;SDS011;40208;39.778;2.710;2023-04-16T04:10:46;8.77;;;2.05;;
54307;SDS011;40208;39.778;2.710;2023-04-16T04:13:31;8.88;;;1.30;;
54307;SDS011;40208;39.778;2.710;2023-04-16T04:16:16;7.57;;;2.05;;
54307;SDS011;40208;39.778;2.710;2023-04-16T04:19:01;10.50;;;2.22;;
54307;SDS011;40208;39.778;2.710;2023-04-16T04:21:46;7.30;;;1.67;;
54307;SDS011;40208;39.778;2.710;2023-04-16T04:24:31;6.03;;;1.75;;
54307;SDS011;40208;39.778;2.710;2023-04-16T04:27:16;8.60;;;2.00;;
54307;SDS011;40208;39.778;2.710;2023-04-16T04:30:01;12.07;;;2.20;;
54307;SDS011;40208;39.778;2.710;2023-04-16T04:32:48;12.40;;;2.03;;
54307;SDS011;40208;39.778;2.710;2023-04-16T04:35:33;8.43;;;1.55;;
54307;SDS011;40208;39.778;2.710;2023-04-16T04:38:17;14.43;;;2.00;;
54307;SDS011;40208;39.778;2.710;2023-04-16T04:41:04;11.07;;;1.98;;
54307;SDS011;40208;39.778;2.710;2023-04-16T04:43:49;11.20;;;2.13;;
54307;SDS011;40208;39.778;2.710;2023-04-16T04:46:33;8.02;;;1.95;;
54307;SDS011;40208;39.778;2.710;2023-04-16T04:49:18;5.90;;;1.35;;
54307;SDS011;40208;39.778;2.710;2023-04-16T04:52:03;9.88;;;1.63;;
54307;SDS011;40208;39.778;2.710;2023-04-16T04:54:49;11.82;;;1.95;;
54307;SDS011;40208;39.778;2.710;2023-04-16T04:57:34;7.05;;;2.00;;
54307;SDS011;40208;39.778;2.710;2023-04-16T05:00:19;12.25;;;1.85;;
54307;SDS011;40208;39.778;2.710;2023-04-16T05:03:04;14.68;;;3.42;;
54307;SDS011;40208;39.778;2.710;2023-04-16T05:05:53;9.32;;;1.58;;
54307;SDS011;40208;39.778;2.710;2023-04-16T05:08:39;11.48;;;1.42;;
54307;SDS011;40208;39.778;2.710;2023-04-16T05:11:24;9.30;;;2.10;;
54307;SDS011;40208;39.778;2.710;2023-04-16T05:14:09;9.70;;;1.42;;
54307;SDS011;40208;39.778;2.710;2023-04-16T05:16:54;19.42;;;1.80;;
54307;SDS011;40208;39.778;2.710;2023-04-16T05:19:39;13.75;;;1.98;;
54307;SDS011;40208;39.778;2.710;2023-04-16T05:22:24;13.52;;;2.00;;
54307;SDS011;40208;39.778;2.710;2023-04-16T05:25:09;10.68;;;2.17;;
54307;SDS011;40208;39.778;2.710;2023-04-16T05:27:54;14.75;;;1.50;;
54307;SDS011;40208;39.778;2.710;2023-04-16T05:30:38;13.95;;;2.08;;
54307;SDS011;40208;39.778;2.710;2023-04-16T05:33:23;12.57;;;2.42;;
54307;SDS011;40208;39.778;2.710;2023-04-16T05:36:08;17.05;;;1.63;;
54307;SDS011;40208;39.778;2.710;2023-04-16T05:38:53;10.15;;;1.95;;
54307;SDS011;40208;39.778;2.710;2023-04-16T05:41:38;12.10;;;2.42;;
54307;SDS011;40208;39.778;2.710;2023-04-16T05:44:23;8.27;;;1.75;;
54307;SDS011;40208;39.778;2.710;2023-04-16T05:47:08;9.30;;;2.17;;
54307;SDS011;40208;39.778;2.710;2023-04-16T05:49:54;7.35;;;1.75;;
54307;SDS011;40208;39.778;2.710;2023-04-16T05:52:38;12.02;;;1.95;;
54307;SDS011;40208;39.778;2.710;2023-04-16T05:55:23;8.57;;;1.85;;
54307;SDS011;40208;39.778;2.710;2023-04-16T05:58:08;7.28;;;2.10;;
54307;SDS011;40208;39.778;2.710;2023-04-16T06:00:53;13.55;;;2.75;;
54307;SDS011;40208;39.778;2.710;2023-04-16T06:03:38;9.02;;;2.60;;
54307;SDS011;40208;39.778;2.710;2023-04-16T06:06:23;15.57;;;2.30;;
54307;SDS011;40208;39.778;2.710;2023-04-16T06:09:08;13.40;;;2.47;;
54307;SDS011;40208;39.778;2.710;2023-04-16T06:11:53;16.55;;;2.65;;
54307;SDS011;40208;39.778;2.710;2023-04-16T06:14:38;18.38;;;2.70;;
54307;SDS011;40208;39.778;2.710;2023-04-16T06:17:23;10.13;;;1.98;;
54307;SDS011;40208;39.778;2.710;2023-04-16T06:20:08;12.93;;;2.47;;
54307;SDS011;40208;39.778;2.710;2023-04-16T06:22:53;12.93;;;2.30;;
54307;SDS011;40208;39.778;2.710;2023-04-16T06:25:39;16.48;;;2.30;;
54307;SDS011;40208;39.778;2.710;2023-04-16T06:28:24;17.75;;;1.80;;
54307;SDS011;40208;39.778;2.710;2023-04-16T06:31:09;19.55;;;2.13;;
54307;SDS011;40208;39.778;2.710;2023-04-16T06:33:54;15.25;;;2.40;;
54307;SDS011;40208;39.778;2.710;2023-04-16T06:36:39;24.40;;;3.70;;
54307;SDS011;40208;39.778;2.710;2023-04-16T06:39:24;16.23;;;2.05;;
54307;SDS011;40208;39.778;2.710;2023-04-16T06:42:09;12.90;;;2.42;;
54307;SDS011;40208;39.778;2.710;2023-04-16T06:44:53;15.07;;;1.83;;
54307;SDS011;40208;39.778;2.710;2023-04-16T06:47:38;10.23;;;2.30;;
54307;SDS011;40208;39.778;2.710;2023-04-16T06:50:24;9.90;;;1.70;;
54307;SDS011;40208;39.778;2.710;2023-04-16T06:53:10;15.23;;;2.10;;
54307;SDS011;40208;39.778;2.710;2023-04-16T06:55:55;6.57;;;1.67;;
54307;SDS011;40208;39.778;2.710;2023-04-16T06:58:39;16.73;;;2.22;;
54307;SDS011;40208;39.778;2.710;2023-04-16T07:01:24;10.60;;;2.40;;
54307;SDS011;40208;39.778;2.710;2023-04-16T07:04:10;10.05;;;1.67;;
54307;SDS011;40208;39.778;2.710;2023-04-16T07:06:55;12.82;;;1.83;;
54307;SDS011;40208;39.778;2.710;2023-04-16T07:09:40;15.40;;;2.15;;
54307;SDS011;40208;39.778;2.710;2023-04-16T07:12:25;8.50;;;1.67;;
54307;SDS011;40208;39.778;2.710;2023-04-16T07:15:10;12.10;;;2.22;;
54307;SDS011;40208;39.778;2.710;2023-04-16T07:17:55;15.05;;;2.15;;
54307;SDS011;40208;39.778;2.710;2023-04-16T07:20:39;11.88;;;1.98;;
54307;SDS011;40208;39.778;2.710;2023-04-16T07:23:24;11.70;;;3.08;;
54307;SDS011;40208;39.778;2.710;2023-04-16T07:26:09;15.45;;;2.30;;
54307;SDS011;40208;39.778;2.710;2023-04-16T07:28:54;16.52;;;2.65;;
54307;SDS011;40208;39.778;2.710;2023-04-16T07:31:39;14.20;;;3.15;;
54307;SDS011;40208;39.778;2.710;2023-04-16T07:34:24;11.13;;;2.75;;
54307;SDS011;40208;39.778;2.710;2023-04-16T07:37:09;14.82;;;2.97;;
54307;SDS011;40208;39.778;2.710;2023-04-16T07:39:54;11.93;;;1.92;;
54307;SDS011;40208;39.778;2.710;2023-04-16T07:42:41;6.20;;;1.55;;
54307;SDS011;40208;39.778;2.710;2023-04-16T07:45:26;13.88;;;2.10;;
54307;SDS011;40208;39.778;2.710;2023-04-16T07:48:11;14.98;;;2.35;;
54307;SDS011;40208;39.778;2.710;2023-04-16T07:50:56;14.18;;;2.25;;
54307;SDS011;40208;39.778;2.710;2023-04-16T07:53:41;15.25;;;3.78;;
54307;SDS011;40208;39.778;2.710;2023-04-16T07:56:26;15.15;;;2.55;;
54307;SDS011;40208;39.778;2.710;2023-04-16T07:59:11;10.55;;;1.83;;
54307;SDS011;40208;39.778;2.710;2023-04-16T08:01:56;15.32;;;2.38;;
54307;SDS011;40208;39.778;2.710;2023-04-16T08:04:41;12.25;;;3.35;;
54307;SDS011;40208;39.778;2.710;2023-04-16T08:07:26;14.07;;;2.65;;
54307;SDS011;40208;39.778;2.710;2023-04-16T08:10:11;9.57;;;2.25;;
54307;SDS011;40208;39.778;2.710;2023-04-16T08:12:56;12.85;;;1.95;;
54307;SDS011;40208;39.778;2.710;2023-04-16T08:15:41;8.10;;;1.60;;
54307;SDS011;40208;39.778;2.710;2023-04-16T08:18:25;22.33;;;2.80;;
54307;SDS011;40208;39.778;2.710;2023-04-16T08:21:10;25.52;;;4.25;;
54307;SDS011;40208;39.778;2.710;2023-04-16T08:23:55;10.13;;;2.20;;
54307;SDS011;40208;39.778;2.710;2023-04-16T08:26:40;7.65;;;2.25;;
54307;SDS011;40208;39.778;2.710;2023-04-16T08:29:25;12.25;;;2.03;;
54307;SDS011;40208;39.778;2.710;2023-04-16T08:32:10;13.07;;;2.22;;
54307;SDS011;40208;39.778;2.710;2023-04-16T08:34:54;14.75;;;2.05;;
54307;SDS011;40208;39.778;2.710;2023-04-16T08:37:40;9.73;;;1.80;;
54307;SDS011;40208;39.778;2.710;2023-04-16T08:40:25;9.32;;;1.65;;
54307;SDS011;40208;39.778;2.710;2023-04-16T08:43:12;13.48;;;2.53;;
54307;SDS011;40208;39.778;2.710;2023-04-16T08:45:59;18.38;;;2.83;;
54307;SDS011;40208;39.778;2.710;2023-04-16T08:48:45;17.67;;;4.65;;
54307;SDS011;40208;39.778;2.710;2023-04-16T08:51:33;12.43;;;2.67;;
54307;SDS011;40208;39.778;2.710;2023-04-16T08:57:38;17.75;;;2.97;;
54307;SDS011;40208;39.778;2.710;2023-04-16T09:00:29;15.88;;;3.20;;
54307;SDS011;40208;39.778;2.710;2023-04-16T09:03:16;13.40;;;2.35;;
54307;SDS011;40208;39.778;2.710;2023-04-16T09:06:03;11.60;;;1.98;;
54307;SDS011;40208;39.778;2.710;2023-04-16T09:08:49;14.25;;;1.98;;
54307;SDS011;40208;39.778;2.710;2023-04-16T09:11:36;15.60;;;2.05;;
54307;SDS011;40208;39.778;2.710;2023-04-16T09:14:22;14.85;;;2.50;;
54307;SDS011;40208;39.778;2.710;2023-04-16T09:17:07;21.25;;;2.28;;
54307;SDS011;40208;39.778;2.710;2023-04-16T09:19:53;10.48;;;2.13;;
54307;SDS011;40208;39.778;2.710;2023-04-16T09:22:38;7.35;;;1.98;;
54307;SDS011;40208;39.778;2.710;2023-04-16T09:25:23;14.18;;;1.98;;
54307;SDS011;40208;39.778;2.710;2023-04-16T09:28:09;13.02;;;1.77;;
54307;SDS011;40208;39.778;2.710;2023-04-16T09:31:16;12.73;;;2.42;;
54307;SDS011;40208;39.778;2.710;2023-04-16T09:34:02;13.73;;;2.05;;
54307;SDS011;40208;39.778;2.710;2023-04-16T09:36:48;13.38;;;1.90;;
54307;SDS011;40208;39.778;2.710;2023-04-16T09:39:33;23.27;;;2.90;;
54307;SDS011;40208;39.778;2.710;2023-04-16T09:42:22;12.90;;;2.22;;
54307;SDS011;40208;39.778;2.710;2023-04-16T09:47:52;19.60;;;2.47;;
54307;SDS011;40208;39.778;2.710;2023-04-16T09:50:50;14.05;;;2.63;;
54307;SDS011;40208;39.778;2.710;2023-04-16T09:53:35;10.95;;;2.17;;
54307;SDS011;40208;39.778;2.710;2023-04-16T09:56:22;14.80;;;2.55;;
54307;SDS011;40208;39.778;2.710;2023-04-16T09:59:22;11.73;;;2.83;;
54307;SDS011;40208;39.778;2.710;2023-04-16T10:02:07;16.52;;;2.75;;
54307;SDS011;40208;39.778;2.710;2023-04-16T10:04:52;14.55;;;2.63;;
54307;SDS011;40208;39.778;2.710;2023-04-16T10:07:38;10.77;;;3.00;;
54307;SDS011;40208;39.778;2.710;2023-04-16T10:10:23;11.48;;;2.15;;
54307;SDS011;40208;39.778;2.710;2023-04-16T10:13:08;11.20;;;2.47;;
54307;SDS011;40208;39.778;2.710;2023-04-16T10:15:54;17.65;;;3.70;;
54307;SDS011;40208;39.778;2.710;2023-04-16T10:18:42;10.25;;;2.42;;
54307;SDS011;40208;39.778;2.710;2023-04-16T10:21:28;14.00;;;2.40;;
54307;SDS011;40208;39.778;2.710;2023-04-16T10:24:16;17.08;;;2.47;;
54307;SDS011;40208;39.778;2.710;2023-04-16T10:27:01;16.67;;;2.33;;
54307;SDS011;40208;39.778;2.710;2023-04-16T10:29:46;7.53;;;2.38;;
54307;SDS011;40208;39.778;2.710;2023-04-16T10:32:32;6.63;;;1.98;;
54307;SDS011;40208;39.778;2.710;2023-04-16T10:35:19;14.10;;;2.42;;
54307;SDS011;40208;39.778;2.710;2023-04-16T10:41:11;19.15;;;4.05;;
54307;SDS011;40208;39.778;2.710;2023-04-16T10:44:06;15.48;;;2.58;;
54307;SDS011;40208;39.778;2.710;2023-04-16T10:46:52;19.08;;;2.53;;
54307;SDS011;40208;39.778;2.710;2023-04-16T10:49:38;13.05;;;2.40;;
54307;SDS011;40208;39.778;2.710;2023-04-16T10:52:24;17.75;;;2.78;;
54307;SDS011;40208;39.778;2.710;2023-04-16T10:55:16;10.73;;;3.05;;
54307;SDS011;40208;39.778;2.710;2023-04-16T10:58:01;14.07;;;2.55;;
54307;SDS011;40208;39.778;2.710;2023-04-16T11:00:48;19.05;;;3.42;;
54307;SDS011;40208;39.778;2.710;2023-04-16T11:03:39;18.35;;;2.88;;
54307;SDS011;40208;39.778;2.710;2023-04-16T11:06:25;20.70;;;3.33;;
54307;SDS011;40208;39.778;2.710;2023-04-16T11:09:40;13.80;;;2.35;;
54307;SDS011;40208;39.778;2.710;2023-04-16T11:15:20;11.50;;;2.30;;
54307;SDS011;40208;39.778;2.710;2023-04-16T11:18:06;11.52;;;2.88;;
54307;SDS011;40208;39.778;2.710;2023-04-16T11:20:53;21.08;;;2.45;;
54307;SDS011;40208;39.778;2.710;2023-04-16T11:23:53;11.75;;;2.40;;
54307;SDS011;40208;39.778;2.710;2023-04-16T11:26:38;21.65;;;2.92;;
54307;SDS011;40208;39.778;2.710;2023-04-16T11:29:23;18.42;;;2.65;;
54307;SDS011;40208;39.778;2.710;2023-04-16T11:32:08;17.23;;;2.05;;
54307;SDS011;40208;39.778;2.710;2023-04-16T11:34:53;10.20;;;2.38;;
54307;SDS011;40208;39.778;2.710;2023-04-16T11:37:38;17.75;;;2.75;;
54307;SDS011;40208;39.778;2.710;2023-04-16T11:40:23;10.82;;;2.40;;
54307;SDS011;40208;39.778;2.710;2023-04-16T11:43:12;11.70;;;2.08;;
54307;SDS011;40208;39.778;2.710;2023-04-16T11:46:00;12.55;;;2.15;;
54307;SDS011;40208;39.778;2.710;2023-04-16T11:48:47;9.00;;;1.48;;
54307;SDS011;40208;39.778;2.710;2023-04-16T11:51:44;12.23;;;2.03;;
54307;SDS011;40208;39.778;2.710;2023-04-16T11:54:30;13.52;;;2.50;;
54307;SDS011;40208;39.778;2.710;2023-04-16T11:57:24;15.18;;;1.95;;
54307;SDS011;40208;39.778;2.710;2023-04-16T12:00:10;11.95;;;2.15;;
54307;SDS011;40208;39.778;2.710;2023-04-16T12:02:58;9.77;;;1.80;;
54307;SDS011;40208;39.778;2.710;2023-04-16T12:05:43;14.13;;;1.90;;
54307;SDS011;40208;39.778;2.710;2023-04-16T12:08:28;8.57;;;2.15;;
54307;SDS011;40208;39.778;2.710;2023-04-16T12:11:16;11.32;;;2.30;;
54307;SDS011;40208;39.778;2.710;2023-04-16T12:14:11;13.07;;;2.05;;
54307;SDS011;40208;39.778;2.710;2023-04-16T12:17:15;8.05;;;1.42;;
54307;SDS011;40208;39.778;2.710;2023-04-16T12:20:07;9.45;;;1.88;;
54307;SDS011;40208;39.778;2.710;2023-04-16T12:22:53;16.92;;;2.38;;
54307;SDS011;40208;39.778;2.710;2023-04-16T12:25:41;7.82;;;1.63;;
54307;SDS011;40208;39.778;2.710;2023-04-16T12:28:30;9.68;;;2.03;;
54307;SDS011;40208;39.778;2.710;2023-04-16T12:31:16;12.40;;;2.13;;
54307;SDS011;40208;39.778;2.710;2023-04-16T12:34:01;8.20;;;1.67;;
54307;SDS011;40208;39.778;2.710;2023-04-16T12:36:46;10.95;;;2.47;;
54307;SDS011;40208;39.778;2.710;2023-04-16T12:39:32;11.95;;;1.98;;
54307;SDS011;40208;39.778;2.710;2023-04-16T12:42:17;6.90;;;1.55;;
54307;SDS011;40208;39.778;2.710;2023-04-16T12:45:03;9.20;;;1.85;;
54307;SDS011;40208;39.778;2.710;2023-04-16T12:47:49;12.95;;;2.72;;
54307;SDS011;40208;39.778;2.710;2023-04-16T12:50:33;14.15;;;2.47;;
54307;SDS011;40208;39.778;2.710;2023-04-16T12:53:18;12.13;;;2.03;;
54307;SDS011;40208;39.778;2.710;2023-04-16T12:56:03;8.45;;;1.95;;
54307;SDS011;40208;39.778;2.710;2023-04-16T12:58:48;13.02;;;2.10;;
54307;SDS011;40208;39.778;2.710;2023-04-16T13:01:36;11.27;;;1.92;;
54307;SDS011;40208;39.778;2.710;2023-04-16T13:04:20;8.73;;;1.77;;
54307;SDS011;40208;39.778;2.710;2023-04-16T13:07:05;10.57;;;1.50;;
54307;SDS011;40208;39.778;2.710;2023-04-16T13:09:51;6.13;;;1.45;;
54307;SDS011;40208;39.778;2.710;2023-04-16T13:12:36;9.20;;;1.52;;
54307;SDS011;40208;39.778;2.710;2023-04-16T13:15:21;10.68;;;1.55;;
54307;SDS011;40208;39.778;2.710;2023-04-16T13:18:06;10.52;;;1.85;;
54307;SDS011;40208;39.778;2.710;2023-04-16T13:20:54;9.02;;;1.58;;
54307;SDS011;40208;39.778;2.710;2023-04-16T13:23:38;10.13;;;1.58;;
54307;SDS011;40208;39.778;2.710;2023-04-16T13:26:24;14.07;;;1.80;;
54307;SDS011;40208;39.778;2.710;2023-04-16T13:29:09;5.95;;;1.42;;
54307;SDS011;40208;39.778;2.710;2023-04-16T13:31:54;8.55;;;1.35;;
54307;SDS011;40208;39.778;2.710;2023-04-16T13:34:39;7.63;;;1.30;;
54307;SDS011;40208;39.778;2.710;2023-04-16T13:37:24;7.28;;;1.10;;
54307;SDS011;40208;39.778;2.710;2023-04-16T13:40:09;3.28;;;1.10;;
54307;SDS011;40208;39.778;2.710;2023-04-16T13:42:54;5.13;;;1.08;;
54307;SDS011;40208;39.778;2.710;2023-04-16T13:45:39;5.55;;;1.15;;
54307;SDS011;40208;39.778;2.710;2023-04-16T13:48:24;4.55;;;1.35;;
54307;SDS011;40208;39.778;2.710;2023-04-16T13:51:09;8.20;;;1.13;;
54307;SDS011;40208;39.778;2.710;2023-04-16T13:53:54;3.97;;;1.10;;
54307;SDS011;40208;39.778;2.710;2023-04-16T13:56:39;9.75;;;0.82;;
54307;SDS011;40208;39.778;2.710;2023-04-16T13:59:25;6.95;;;1.17;;
54307;SDS011;40208;39.778;2.710;2023-04-16T14:02:10;5.15;;;1.27;;
54307;SDS011;40208;39.778;2.710;2023-04-16T14:04:54;3.50;;;0.93;;
54307;SDS011;40208;39.778;2.710;2023-04-16T14:07:39;4.25;;;0.88;;
54307;SDS011;40208;39.778;2.710;2023-04-16T14:10:25;4.95;;;0.80;;
54307;SDS011;40208;39.778;2.710;2023-04-16T14:13:10;5.03;;;0.80;;
54307;SDS011;40208;39.778;2.710;2023-04-16T14:15:55;5.22;;;1.08;;
54307;SDS011;40208;39.778;2.710;2023-04-16T14:18:40;6.82;;;1.25;;
54307;SDS011;40208;39.778;2.710;2023-04-16T14:21:25;7.35;;;1.30;;
54307;SDS011;40208;39.778;2.710;2023-04-16T14:24:10;5.47;;;1.02;;
54307;SDS011;40208;39.778;2.710;2023-04-16T14:26:54;3.42;;;0.90;;
54307;SDS011;40208;39.778;2.710;2023-04-16T14:29:40;6.88;;;1.13;;
54307;SDS011;40208;39.778;2.710;2023-04-16T14:32:25;5.03;;;1.52;;
54307;SDS011;40208;39.778;2.710;2023-04-16T14:35:10;4.65;;;0.95;;
54307;SDS011;40208;39.778;2.710;2023-04-16T14:37:55;7.22;;;1.15;;
54307;SDS011;40208;39.778;2.710;2023-04-16T14:40:39;5.53;;;1.05;;
54307;SDS011;40208;39.778;2.710;2023-04-16T14:43:24;7.53;;;1.33;;
54307;SDS011;40208;39.778;2.710;2023-04-16T14:46:10;5.07;;;0.95;;
54307;SDS011;40208;39.778;2.710;2023-04-16T14:48:54;5.85;;;0.90;;
54307;SDS011;40208;39.778;2.710;2023-04-16T14:51:39;6.32;;;1.23;;
54307;SDS011;40208;39.778;2.710;2023-04-16T14:54:25;3.60;;;1.00;;
54307;SDS011;40208;39.778;2.710;2023-04-16T14:57:11;5.43;;;0.90;;
54307;SDS011;40208;39.778;2.710;2023-04-16T14:59:55;2.88;;;0.90;;
54307;SDS011;40208;39.778;2.710;2023-04-16T15:02:40;4.57;;;1.08;;
54307;SDS011;40208;39.778;2.710;2023-04-16T15:05:25;11.38;;;1.02;;
54307;SDS011;40208;39.778;2.710;2023-04-16T15:08:11;6.07;;;1.42;;
54307;SDS011;40208;39.778;2.710;2023-04-16T15:10:55;5.82;;;1.15;;
54307;SDS011;40208;39.778;2.710;2023-04-16T15:13:40;4.38;;;0.95;;
54307;SDS011;40208;39.778;2.710;2023-04-16T15:16:25;2.47;;;0.82;;
54307;SDS011;40208;39.778;2.710;2023-04-16T15:19:10;6.25;;;1.25;;
54307;SDS011;40208;39.778;2.710;2023-04-16T15:21:55;5.88;;;0.80;;
54307;SDS011;40208;39.778;2.710;2023-04-16T15:24:39;6.13;;;1.00;;
54307;SDS011;40208;39.778;2.710;2023-04-16T15:27:24;4.60;;;0.93;;
54307;SDS011;40208;39.778;2.710;2023-04-16T15:30:09;8.18;;;1.17;;
54307;SDS011;40208;39.778;2.710;2023-04-16T15:32:55;8.90;;;1.20;;
54307;SDS011;40208;39.778;2.710;2023-04-16T15:35:40;4.47;;;0.65;;
54307;SDS011;40208;39.778;2.710;2023-04-16T15:38:25;3.45;;;1.10;;
54307;SDS011;40208;39.778;2.710;2023-04-16T15:41:12;5.22;;;1.00;;
54307;SDS011;40208;39.778;2.710;2023-04-16T15:43:56;8.38;;;1.30;;
54307;SDS011;40208;39.778;2.710;2023-04-16T15:46:41;8.40;;;1.10;;
54307;SDS011;40208;39.778;2.710;2023-04-16T15:49:26;3.80;;;1.35;;
54307;SDS011;40208;39.778;2.710;2023-04-16T15:52:11;4.10;;;1.10;;
54307;SDS011;40208;39.778;2.710;2023-04-16T15:54:56;2.10;;;0.93;;
54307;SDS011;40208;39.778;2.710;2023-04-16T15:57:41;8.65;;;1.98;;
54307;SDS011;40208;39.778;2.710;2023-04-16T16:00:27;4.50;;;1.02;;
54307;SDS011;40208;39.778;2.710;2023-04-16T16:03:12;3.00;;;1.10;;
54307;SDS011;40208;39.778;2.710;2023-04-16T16:05:57;4.47;;;1.38;;
54307;SDS011;40208;39.778;2.710;2023-04-16T16:08:42;4.43;;;1.10;;
54307;SDS011;40208;39.778;2.710;2023-04-16T16:11:27;5.07;;;0.80;;
54307;SDS011;40208;39.778;2.710;2023-04-16T16:14:12;3.95;;;1.17;;
54307;SDS011;40208;39.778;2.710;2023-04-16T16:16:57;3.28;;;0.73;;
54307;SDS011;40208;39.778;2.710;2023-04-16T16:19:42;4.53;;;1.20;;
54307;SDS011;40208;39.778;2.710;2023-04-16T16:22:33;5.03;;;1.08;;
54307;SDS011;40208;39.778;2.710;2023-04-16T16:25:18;4.85;;;0.90;;
54307;SDS011;40208;39.778;2.710;2023-04-16T16:28:03;9.82;;;1.00;;
54307;SDS011;40208;39.778;2.710;2023-04-16T16:30:49;3.80;;;1.10;;
54307;SDS011;40208;39.778;2.710;2023-04-16T16:33:38;5.10;;;1.30;;
54307;SDS011;40208;39.778;2.710;2023-04-16T16:36:23;6.85;;;0.77;;
54307;SDS011;40208;39.778;2.710;2023-04-16T16:39:10;3.67;;;0.93;;
54307;SDS011;40208;39.778;2.710;2023-04-16T16:41:55;11.65;;;1.02;;